VST4017 LROP-KEWR
Flight info
| Callsign | VST4017 |
|---|---|
| Flight time | N/A |
| Altitude | 35000 |
| Route | POLUN Y88 ANASA/N0488F340 DCT PEROT DCT BEDOX/N0484F360 DCT ERKIR DCT ETAGO DCT LIRSU DCT REMBA M624 BUB L608 DENUT L610 HEMEL T420 BUZAD L10 DTY DCT SAPCO UN57 TNT UQ4 WAL L10 PENIL UL28 LELDO M145 BAGSO DCT MALOT/M085F380 NATD RIKAL/N0497F380 N576B ANATI DCT IMORI DCT HANAA FLOSI4 |
| Aircraft | A35K/H-SDE2E3GHIJ3J4J5LM1ORWXY/LB1D1 |
Departure
| Time | 2026-05-04 08:47 |
|---|---|
| Airport | Bucharest Henri Coandă International Airport (LROP) |
Arrival
| Time | N/A |
|---|---|
| Airport | Newark Liberty International Airport (KEWR) |
| Time | Latitude | Longitude | Altitude | Speed | Heading |
|---|---|---|---|---|---|
| 2026-05-04 08:21 | 44.57122 | 26.08234 | 322 ft | 0 kts | 218° |
| 2026-05-04 08:35 | 44.57228 | 26.08286 | 321 ft | 1 kts | 110° |
| 2026-05-04 08:35 | 44.57228 | 26.08285 | 321 ft | 0 kts | 110° |
| 2026-05-04 08:37 | 44.57228 | 26.08286 | 321 ft | 1 kts | 110° |
| 2026-05-04 08:37 | 44.57226 | 26.08306 | 320 ft | 4 kts | 96° |
| 2026-05-04 08:37 | 44.57225 | 26.08354 | 321 ft | 6 kts | 89° |
| 2026-05-04 08:38 | 44.57229 | 26.08424 | 322 ft | 8 kts | 84° |
| 2026-05-04 08:38 | 44.57256 | 26.08488 | 321 ft | 8 kts | 26° |
| 2026-05-04 08:38 | 44.57311 | 26.08492 | 323 ft | 8 kts | 358° |
| 2026-05-04 08:40 | 44.57542 | 26.09134 | 321 ft | 18 kts | 84° |
| 2026-05-04 08:40 | 44.57555 | 26.09315 | 320 ft | 19 kts | 84° |
| 2026-05-04 08:40 | 44.57570 | 26.09506 | 322 ft | 19 kts | 84° |
| 2026-05-04 08:41 | 44.57584 | 26.09696 | 320 ft | 17 kts | 84° |
| 2026-05-04 08:41 | 44.57596 | 26.09860 | 321 ft | 18 kts | 84° |
| 2026-05-04 08:41 | 44.57609 | 26.10037 | 322 ft | 19 kts | 84° |
| 2026-05-04 08:41 | 44.57624 | 26.10227 | 319 ft | 20 kts | 84° |
| 2026-05-04 08:42 | 44.57638 | 26.10427 | 319 ft | 20 kts | 84° |
| 2026-05-04 08:42 | 44.57653 | 26.10626 | 318 ft | 19 kts | 84° |
| 2026-05-04 08:42 | 44.57667 | 26.10812 | 318 ft | 20 kts | 84° |
| 2026-05-04 08:42 | 44.57681 | 26.11005 | 320 ft | 18 kts | 84° |
| 2026-05-04 08:43 | 44.57695 | 26.11191 | 318 ft | 20 kts | 84° |
| 2026-05-04 08:43 | 44.57710 | 26.11391 | 318 ft | 21 kts | 84° |
| 2026-05-04 08:43 | 44.57725 | 26.11588 | 316 ft | 20 kts | 84° |
| 2026-05-04 08:43 | 44.57741 | 26.11789 | 316 ft | 21 kts | 84° |
| 2026-05-04 08:44 | 44.57757 | 26.12000 | 317 ft | 22 kts | 84° |
| 2026-05-04 08:44 | 44.57772 | 26.12193 | 315 ft | 18 kts | 84° |
| 2026-05-04 08:46 | 44.57977 | 26.12610 | 316 ft | 6 kts | 262° |
| 2026-05-04 08:46 | 44.57964 | 26.12458 | 317 ft | 40 kts | 264° |
| 2026-05-04 08:46 | 44.57912 | 26.11756 | 317 ft | 103 kts | 264° |
| 2026-05-04 08:46 | 44.57819 | 26.10521 | 322 ft | 154 kts | 264° |
| 2026-05-04 08:47 | 44.57703 | 26.08946 | 801 ft | 158 kts | 264° |
| 2026-05-04 08:47 | 44.57595 | 26.07437 | 1474 ft | 158 kts | 264° |
| 2026-05-04 08:47 | 44.57471 | 26.05796 | 1759 ft | 181 kts | 264° |
| 2026-05-04 08:47 | 44.57327 | 26.03932 | 2019 ft | 204 kts | 265° |
| 2026-05-04 08:48 | 44.57166 | 26.01828 | 2232 ft | 231 kts | 265° |
| 2026-05-04 08:48 | 44.56989 | 25.99476 | 2554 ft | 252 kts | 265° |
| 2026-05-04 08:48 | 44.56793 | 25.96980 | 3173 ft | 262 kts | 265° |
| 2026-05-04 08:48 | 44.56593 | 25.94413 | 3905 ft | 268 kts | 266° |
| 2026-05-04 08:49 | 44.56391 | 25.91794 | 4615 ft | 272 kts | 266° |
| 2026-05-04 08:50 | 44.52995 | 25.75949 | 8779 ft | 309 kts | 234° |
| 2026-05-04 08:50 | 44.51668 | 25.73543 | 9518 ft | 315 kts | 234° |
| 2026-05-04 08:51 | 44.50326 | 25.71092 | 10232 ft | 319 kts | 234° |
| 2026-05-04 08:51 | 44.48947 | 25.68559 | 10632 ft | 337 kts | 234° |
| 2026-05-04 08:51 | 44.47489 | 25.65871 | 10940 ft | 356 kts | 234° |
| 2026-05-04 08:51 | 44.45950 | 25.63033 | 11263 ft | 375 kts | 234° |
| 2026-05-04 08:52 | 44.44336 | 25.60060 | 11578 ft | 392 kts | 234° |
| 2026-05-04 08:52 | 44.42663 | 25.56980 | 12100 ft | 402 kts | 234° |
| 2026-05-04 08:52 | 44.40963 | 25.53854 | 12808 ft | 407 kts | 233° |
| 2026-05-04 08:52 | 44.39241 | 25.50689 | 13521 ft | 411 kts | 233° |
| 2026-05-04 08:53 | 44.37499 | 25.47492 | 14210 ft | 415 kts | 233° |
| 2026-05-04 08:54 | 44.25333 | 25.24816 | 19293 ft | 418 kts | 243° |
| 2026-05-04 08:55 | 44.24273 | 25.21030 | 19789 ft | 422 kts | 258° |
| 2026-05-04 08:55 | 44.23918 | 25.16963 | 20308 ft | 425 kts | 270° |
| 2026-05-04 08:55 | 44.23930 | 25.12832 | 20859 ft | 429 kts | 273° |
| 2026-05-04 08:55 | 44.24086 | 25.08660 | 21397 ft | 433 kts | 275° |
| 2026-05-04 08:57 | 44.25423 | 24.78319 | 25075 ft | 461 kts | 272° |
| 2026-05-04 09:01 | 44.27575 | 24.12421 | 30754 ft | 510 kts | 272° |
| 2026-05-04 09:01 | 44.27724 | 24.07464 | 31104 ft | 511 kts | 273° |
| 2026-05-04 09:01 | 44.27870 | 24.02513 | 31562 ft | 510 kts | 273° |
| 2026-05-04 09:01 | 44.28013 | 23.97562 | 31988 ft | 509 kts | 273° |
| 2026-05-04 09:02 | 44.28153 | 23.92637 | 32378 ft | 509 kts | 274° |
| 2026-05-04 09:02 | 44.28291 | 23.87703 | 32772 ft | 508 kts | 274° |
| 2026-05-04 09:02 | 44.28426 | 23.82776 | 33159 ft | 508 kts | 274° |
| 2026-05-04 09:02 | 44.28559 | 23.77853 | 33538 ft | 507 kts | 275° |
| 2026-05-04 09:03 | 44.28691 | 23.72944 | 33913 ft | 506 kts | 275° |
| 2026-05-04 09:03 | 44.28823 | 23.68047 | 34292 ft | 504 kts | 275° |
| 2026-05-04 09:03 | 44.28948 | 23.63161 | 34598 ft | 503 kts | 275° |
| 2026-05-04 09:03 | 44.29068 | 23.58350 | 34920 ft | 502 kts | 275° |
| 2026-05-04 09:04 | 44.29188 | 23.53426 | 35248 ft | 500 kts | 275° |
| 2026-05-04 09:04 | 44.29303 | 23.48648 | 35532 ft | 499 kts | 275° |
| 2026-05-04 09:04 | 44.29419 | 23.43815 | 35816 ft | 498 kts | 275° |
| 2026-05-04 09:04 | 44.29536 | 23.38994 | 36072 ft | 497 kts | 275° |
| 2026-05-04 09:05 | 44.29652 | 23.34153 | 36120 ft | 501 kts | 275° |
| 2026-05-04 09:05 | 44.29874 | 23.24402 | 36151 ft | 502 kts | 275° |
| 2026-05-04 09:06 | 44.30085 | 23.14668 | 36140 ft | 501 kts | 275° |
| 2026-05-04 09:08 | 44.30851 | 22.75831 | 36146 ft | 498 kts | 275° |
| 2026-05-04 09:08 | 44.31022 | 22.66150 | 36146 ft | 498 kts | 275° |
| 2026-05-04 09:09 | 44.31571 | 22.56564 | 36146 ft | 492 kts | 286° |
| 2026-05-04 09:09 | 44.33749 | 22.47690 | 36144 ft | 485 kts | 297° |
| 2026-05-04 09:10 | 44.36512 | 22.39090 | 36147 ft | 485 kts | 298° |
| 2026-05-04 09:10 | 44.39351 | 22.30536 | 36148 ft | 485 kts | 298° |
| 2026-05-04 09:11 | 44.42169 | 22.21961 | 36149 ft | 484 kts | 298° |
| 2026-05-04 09:11 | 44.44946 | 22.13409 | 36155 ft | 482 kts | 298° |
| 2026-05-04 09:12 | 44.47706 | 22.04863 | 36158 ft | 481 kts | 298° |
| 2026-05-04 09:14 | 44.58660 | 21.70678 | 36181 ft | 480 kts | 298° |
| 2026-05-04 09:14 | 44.61380 | 21.62120 | 36181 ft | 480 kts | 298° |
| 2026-05-04 09:15 | 44.64089 | 21.53564 | 36181 ft | 479 kts | 297° |
| 2026-05-04 09:15 | 44.66769 | 21.45074 | 36184 ft | 478 kts | 297° |
| 2026-05-04 09:17 | 44.78794 | 21.06647 | 36189 ft | 475 kts | 297° |
| 2026-05-04 09:18 | 44.81440 | 20.98112 | 36180 ft | 475 kts | 297° |
| 2026-05-04 09:18 | 44.84079 | 20.89575 | 36183 ft | 475 kts | 297° |
| 2026-05-04 09:19 | 44.86703 | 20.81055 | 36177 ft | 474 kts | 297° |
| 2026-05-04 09:19 | 44.89324 | 20.72517 | 36181 ft | 474 kts | 297° |
| 2026-05-04 09:20 | 44.91936 | 20.63982 | 36178 ft | 474 kts | 297° |
| 2026-05-04 09:20 | 44.94538 | 20.55448 | 36181 ft | 473 kts | 297° |
| 2026-05-04 09:21 | 44.97127 | 20.46927 | 36182 ft | 472 kts | 297° |
| 2026-05-04 09:21 | 44.99693 | 20.38459 | 36183 ft | 472 kts | 296° |
| 2026-05-04 09:22 | 45.02269 | 20.29926 | 36159 ft | 472 kts | 296° |
| 2026-05-04 09:22 | 45.04834 | 20.21400 | 36179 ft | 470 kts | 296° |
| 2026-05-04 09:23 | 45.07386 | 20.12890 | 36179 ft | 470 kts | 296° |
| 2026-05-04 09:23 | 45.09931 | 20.04375 | 36179 ft | 470 kts | 296° |
| 2026-05-04 09:25 | 45.20027 | 19.70305 | 36170 ft | 468 kts | 295° |
| 2026-05-04 09:26 | 45.22531 | 19.61782 | 36154 ft | 468 kts | 295° |
| 2026-05-04 09:26 | 45.24606 | 19.54700 | 36170 ft | 467 kts | 295° |
| 2026-05-04 09:27 | 45.27094 | 19.46181 | 36168 ft | 467 kts | 295° |
| 2026-05-04 09:27 | 45.29573 | 19.37663 | 36168 ft | 467 kts | 295° |
| 2026-05-04 09:28 | 45.32046 | 19.29132 | 36164 ft | 467 kts | 295° |
| 2026-05-04 09:28 | 45.34519 | 19.20580 | 36160 ft | 468 kts | 295° |
| 2026-05-04 09:29 | 45.36986 | 19.12015 | 36161 ft | 468 kts | 295° |
| 2026-05-04 09:29 | 45.39446 | 19.03441 | 36160 ft | 468 kts | 295° |
| 2026-05-04 09:30 | 45.41907 | 18.94876 | 36154 ft | 468 kts | 295° |
| 2026-05-04 09:30 | 45.44385 | 18.86308 | 36155 ft | 467 kts | 295° |
| 2026-05-04 09:31 | 45.46853 | 18.77745 | 36157 ft | 467 kts | 294° |
| 2026-05-04 09:31 | 45.49314 | 18.69169 | 36159 ft | 468 kts | 294° |
| 2026-05-04 09:32 | 45.51749 | 18.60644 | 36157 ft | 468 kts | 294° |
| 2026-05-04 09:34 | 45.61468 | 18.26321 | 36153 ft | 466 kts | 294° |
| 2026-05-04 09:34 | 45.63879 | 18.17733 | 36153 ft | 466 kts | 293° |
| 2026-05-04 09:35 | 45.66281 | 18.09144 | 36151 ft | 465 kts | 293° |
| 2026-05-04 09:35 | 45.68677 | 18.00547 | 36153 ft | 465 kts | 293° |
| 2026-05-04 09:37 | 45.78195 | 17.66094 | 36150 ft | 465 kts | 292° |
| 2026-05-04 09:38 | 45.80542 | 17.57522 | 36146 ft | 465 kts | 292° |
| 2026-05-04 09:38 | 45.82898 | 17.48884 | 36127 ft | 465 kts | 292° |
| 2026-05-04 09:39 | 45.85247 | 17.40244 | 36144 ft | 465 kts | 292° |
| 2026-05-04 09:39 | 45.87592 | 17.31585 | 36144 ft | 466 kts | 292° |
| 2026-05-04 09:40 | 45.89931 | 17.22919 | 36126 ft | 466 kts | 292° |
| 2026-05-04 09:40 | 45.92262 | 17.14247 | 36123 ft | 465 kts | 292° |
| 2026-05-04 09:42 | 46.01505 | 16.79552 | 36123 ft | 465 kts | 291° |
| 2026-05-04 09:43 | 46.03813 | 16.70808 | 36115 ft | 465 kts | 291° |
| 2026-05-04 09:43 | 46.06101 | 16.62109 | 36118 ft | 465 kts | 291° |
| 2026-05-04 09:44 | 46.08367 | 16.53461 | 36117 ft | 465 kts | 291° |
| 2026-05-04 09:46 | 46.17418 | 16.18599 | 36104 ft | 464 kts | 291° |
| 2026-05-04 09:46 | 46.19663 | 16.09865 | 36106 ft | 464 kts | 291° |
| 2026-05-04 09:47 | 46.21900 | 16.01135 | 36106 ft | 464 kts | 291° |
| 2026-05-04 09:49 | 46.32163 | 15.67006 | 36091 ft | 463 kts | 297° |
| 2026-05-04 09:51 | 46.42459 | 15.38001 | 36083 ft | 464 kts | 297° |
| 2026-05-04 09:51 | 46.45384 | 15.29676 | 36086 ft | 463 kts | 297° |
| 2026-05-04 09:52 | 46.48303 | 15.21345 | 36090 ft | 463 kts | 297° |
| 2026-05-04 09:52 | 46.51220 | 15.12994 | 36102 ft | 463 kts | 297° |
| 2026-05-04 09:53 | 46.54130 | 15.04640 | 36095 ft | 463 kts | 296° |
| 2026-05-04 09:53 | 46.57030 | 14.96285 | 36094 ft | 463 kts | 296° |
| 2026-05-04 09:54 | 46.59925 | 14.87915 | 36098 ft | 463 kts | 296° |
| 2026-05-04 09:54 | 46.62812 | 14.79542 | 36102 ft | 463 kts | 296° |
| 2026-05-04 09:55 | 46.65696 | 14.71155 | 36102 ft | 463 kts | 296° |
| 2026-05-04 09:55 | 46.68575 | 14.62757 | 36101 ft | 464 kts | 296° |
| 2026-05-04 09:56 | 46.71430 | 14.54399 | 36107 ft | 463 kts | 296° |
| 2026-05-04 09:56 | 46.74297 | 14.45981 | 36091 ft | 464 kts | 296° |
| 2026-05-04 09:57 | 46.77156 | 14.37559 | 36105 ft | 464 kts | 295° |
| 2026-05-04 09:57 | 46.80013 | 14.29115 | 36104 ft | 464 kts | 295° |
| 2026-05-04 09:58 | 46.82866 | 14.20653 | 36104 ft | 465 kts | 295° |
| 2026-05-04 09:58 | 46.85715 | 14.12179 | 36103 ft | 465 kts | 295° |
| 2026-05-04 10:00 | 46.97075 | 13.78109 | 36101 ft | 467 kts | 295° |
| 2026-05-04 10:04 | 47.16744 | 13.18028 | 36057 ft | 468 kts | 294° |
| 2026-05-04 10:04 | 47.19537 | 13.09385 | 36049 ft | 468 kts | 294° |
| 2026-05-04 10:05 | 47.22325 | 13.00725 | 36050 ft | 468 kts | 294° |
| 2026-05-04 10:05 | 47.25105 | 12.92059 | 36044 ft | 468 kts | 294° |
| 2026-05-04 10:06 | 47.27875 | 12.83398 | 36046 ft | 467 kts | 294° |
| 2026-05-04 10:06 | 47.30619 | 12.74787 | 36042 ft | 468 kts | 293° |
| 2026-05-04 10:08 | 47.40223 | 12.44421 | 36028 ft | 466 kts | 293° |
| 2026-05-04 10:08 | 47.42945 | 12.35745 | 36026 ft | 466 kts | 292° |
| 2026-05-04 10:09 | 47.45660 | 12.27063 | 36028 ft | 465 kts | 292° |
| 2026-05-04 10:09 | 47.48368 | 12.18372 | 36018 ft | 465 kts | 292° |
| 2026-05-04 10:10 | 47.51070 | 12.09673 | 36012 ft | 466 kts | 292° |
| 2026-05-04 10:10 | 47.53916 | 12.01058 | 36013 ft | 467 kts | 299° |
| 2026-05-04 10:11 | 47.57567 | 11.93088 | 36007 ft | 469 kts | 303° |
| 2026-05-04 10:11 | 47.61376 | 11.85245 | 36011 ft | 469 kts | 303° |
| 2026-05-04 10:12 | 47.65204 | 11.77418 | 36011 ft | 468 kts | 303° |
| 2026-05-04 10:12 | 47.68986 | 11.69634 | 36007 ft | 469 kts | 303° |
| 2026-05-04 10:13 | 47.72787 | 11.61766 | 36008 ft | 469 kts | 303° |
| 2026-05-04 10:13 | 47.76577 | 11.53886 | 36007 ft | 469 kts | 302° |
| 2026-05-04 10:14 | 47.80360 | 11.46002 | 36007 ft | 469 kts | 302° |
| 2026-05-04 10:16 | 47.95476 | 11.14277 | 36037 ft | 468 kts | 302° |
| 2026-05-04 10:16 | 47.99230 | 11.06338 | 36042 ft | 469 kts | 301° |
| 2026-05-04 10:17 | 48.02996 | 10.98351 | 36040 ft | 471 kts | 301° |
| 2026-05-04 10:19 | 48.18033 | 10.66233 | 36045 ft | 471 kts | 301° |
| 2026-05-04 10:19 | 48.21747 | 10.58240 | 36041 ft | 470 kts | 301° |
| 2026-05-04 10:20 | 48.25482 | 10.50180 | 36039 ft | 470 kts | 301° |
| 2026-05-04 10:20 | 48.29214 | 10.42101 | 36034 ft | 470 kts | 301° |
| 2026-05-04 10:21 | 48.32330 | 10.35337 | 36041 ft | 470 kts | 301° |
| 2026-05-04 10:21 | 48.36037 | 10.27268 | 36026 ft | 471 kts | 301° |
| 2026-05-04 10:22 | 48.41111 | 10.16185 | 36027 ft | 471 kts | 301° |
| 2026-05-04 10:23 | 48.44819 | 10.08056 | 36027 ft | 471 kts | 300° |
| 2026-05-04 10:25 | 48.59571 | 9.75476 | 36020 ft | 471 kts | 300° |
| 2026-05-04 10:25 | 48.63251 | 9.67289 | 36016 ft | 471 kts | 300° |
| 2026-05-04 10:26 | 48.66927 | 9.59084 | 36025 ft | 471 kts | 300° |
| 2026-05-04 10:26 | 48.70597 | 9.50864 | 36002 ft | 472 kts | 300° |
| 2026-05-04 10:27 | 48.74295 | 9.42657 | 36018 ft | 473 kts | 302° |
| 2026-05-04 10:27 | 48.78277 | 9.34855 | 36029 ft | 474 kts | 304° |
| 2026-05-04 10:28 | 48.82034 | 9.27742 | 36025 ft | 474 kts | 304° |
| 2026-05-04 10:28 | 48.86137 | 9.19816 | 36020 ft | 474 kts | 303° |
| 2026-05-04 10:29 | 48.90138 | 9.11950 | 36017 ft | 474 kts | 303° |
| 2026-05-04 10:29 | 48.94184 | 9.03942 | 36014 ft | 474 kts | 303° |
| 2026-05-04 10:30 | 48.98164 | 8.96044 | 36015 ft | 474 kts | 303° |
| 2026-05-04 10:30 | 49.02170 | 8.88076 | 36014 ft | 473 kts | 303° |
| 2026-05-04 10:31 | 49.06171 | 8.80096 | 36016 ft | 474 kts | 303° |
| 2026-05-04 10:32 | 49.20173 | 8.51989 | 36010 ft | 475 kts | 302° |
| 2026-05-04 10:33 | 49.24164 | 8.43921 | 36017 ft | 475 kts | 302° |
| 2026-05-04 10:33 | 49.28142 | 8.35853 | 36015 ft | 475 kts | 302° |
| 2026-05-04 10:34 | 49.32117 | 8.27770 | 36010 ft | 475 kts | 302° |
| 2026-05-04 10:34 | 49.36090 | 8.19666 | 36009 ft | 475 kts | 302° |
| 2026-05-04 10:35 | 49.40054 | 8.11555 | 36011 ft | 475 kts | 302° |
| 2026-05-04 10:35 | 49.44013 | 8.03431 | 36015 ft | 475 kts | 302° |
| 2026-05-04 10:36 | 49.47965 | 7.95291 | 36015 ft | 476 kts | 302° |
| 2026-05-04 10:36 | 49.51919 | 7.87126 | 36009 ft | 476 kts | 302° |
| 2026-05-04 10:37 | 49.55867 | 7.78949 | 36007 ft | 475 kts | 302° |
| 2026-05-04 10:37 | 49.59805 | 7.70768 | 36007 ft | 475 kts | 302° |
| 2026-05-04 10:39 | 49.73262 | 7.42618 | 36015 ft | 475 kts | 301° |
| 2026-05-04 10:40 | 49.77174 | 7.34379 | 36010 ft | 475 kts | 301° |
| 2026-05-04 10:40 | 49.81075 | 7.26138 | 36009 ft | 475 kts | 301° |
| 2026-05-04 10:41 | 49.84974 | 7.17872 | 36007 ft | 476 kts | 301° |
| 2026-05-04 10:41 | 49.88873 | 7.09582 | 36006 ft | 477 kts | 301° |
| 2026-05-04 10:42 | 49.92773 | 7.01265 | 36032 ft | 476 kts | 301° |
| 2026-05-04 10:42 | 49.96665 | 6.92939 | 35994 ft | 476 kts | 301° |
| 2026-05-04 10:43 | 50.00549 | 6.84605 | 36010 ft | 476 kts | 301° |
| 2026-05-04 10:45 | 50.16037 | 6.51097 | 35972 ft | 477 kts | 301° |
| 2026-05-04 10:45 | 50.19560 | 6.42401 | 36007 ft | 471 kts | 293° |
| 2026-05-04 10:46 | 50.22540 | 6.33299 | 35980 ft | 471 kts | 291° |
| 2026-05-04 10:46 | 50.25435 | 6.24123 | 35989 ft | 471 kts | 291° |
| 2026-05-04 10:47 | 50.28298 | 6.14989 | 35983 ft | 471 kts | 291° |
| 2026-05-04 10:47 | 50.31183 | 6.05786 | 35986 ft | 471 kts | 291° |
| 2026-05-04 10:49 | 50.42649 | 5.68957 | 35994 ft | 470 kts | 291° |
| 2026-05-04 10:50 | 50.45492 | 5.59736 | 35995 ft | 470 kts | 291° |
| 2026-05-04 10:52 | 50.56694 | 5.23073 | 35999 ft | 470 kts | 290° |
| 2026-05-04 10:52 | 50.59506 | 5.13781 | 36002 ft | 470 kts | 290° |
| 2026-05-04 10:54 | 50.71561 | 4.82993 | 36005 ft | 487 kts | 309° |
| 2026-05-04 10:54 | 50.73962 | 4.79213 | 36003 ft | 488 kts | 310° |
| 2026-05-04 10:56 | 50.92467 | 4.48006 | 36025 ft | 481 kts | 298° |
| 2026-05-04 10:57 | 50.95996 | 4.38998 | 36020 ft | 480 kts | 296° |
| 2026-05-04 10:57 | 50.99443 | 4.29924 | 36016 ft | 480 kts | 296° |
| 2026-05-04 10:58 | 51.02889 | 4.20832 | 36014 ft | 480 kts | 296° |
| 2026-05-04 10:58 | 51.06340 | 4.11734 | 36002 ft | 480 kts | 296° |
| 2026-05-04 10:59 | 51.09786 | 4.02634 | 35997 ft | 480 kts | 296° |
| 2026-05-04 10:59 | 51.13225 | 3.93523 | 35982 ft | 480 kts | 296° |
| 2026-05-04 11:00 | 51.16657 | 3.84396 | 35982 ft | 480 kts | 296° |
| 2026-05-04 11:01 | 51.25683 | 3.50752 | 35986 ft | 471 kts | 278° |
| 2026-05-04 11:02 | 51.26356 | 3.45635 | 35987 ft | 471 kts | 277° |
| 2026-05-04 11:05 | 51.36024 | 2.68851 | 36009 ft | 474 kts | 277° |
| 2026-05-04 11:06 | 51.37299 | 2.58496 | 36012 ft | 474 kts | 277° |
| 2026-05-04 11:06 | 51.38565 | 2.48137 | 36021 ft | 474 kts | 277° |
| 2026-05-04 11:10 | 51.47098 | 1.77056 | 36017 ft | 478 kts | 277° |
| 2026-05-04 11:12 | 51.51855 | 1.35126 | 36018 ft | 479 kts | 277° |
| 2026-05-04 11:12 | 51.53027 | 1.24574 | 36017 ft | 480 kts | 277° |
| 2026-05-04 11:13 | 51.54192 | 1.14022 | 36018 ft | 480 kts | 277° |
| 2026-05-04 11:13 | 51.55354 | 1.03463 | 36018 ft | 480 kts | 277° |
| 2026-05-04 11:14 | 51.56499 | 0.92902 | 36024 ft | 480 kts | 277° |
| 2026-05-04 11:16 | 51.61009 | 0.50410 | 36019 ft | 482 kts | 277° |
| 2026-05-04 11:16 | 51.62108 | 0.39759 | 36018 ft | 483 kts | 277° |
| 2026-05-04 11:17 | 51.63193 | 0.29145 | 36034 ft | 484 kts | 277° |
| 2026-05-04 11:19 | 51.70766 | -0.06848 | 36069 ft | 489 kts | 293° |
| 2026-05-04 11:19 | 51.72181 | -0.11836 | 36078 ft | 489 kts | 293° |
| 2026-05-04 11:19 | 51.74975 | -0.21769 | 36072 ft | 490 kts | 293° |
| 2026-05-04 11:20 | 51.77774 | -0.31789 | 36077 ft | 490 kts | 294° |
| 2026-05-04 11:20 | 51.81494 | -0.41005 | 36048 ft | 492 kts | 311° |
| 2026-05-04 11:22 | 51.99219 | -0.66758 | 36225 ft | 493 kts | 304° |
| 2026-05-04 11:22 | 52.01186 | -0.71303 | 36516 ft | 492 kts | 303° |
| 2026-05-04 11:23 | 52.03124 | -0.75879 | 36766 ft | 492 kts | 303° |
| 2026-05-04 11:23 | 52.05052 | -0.80468 | 37000 ft | 492 kts | 303° |
| 2026-05-04 11:24 | 52.16976 | -1.07683 | 38042 ft | 495 kts | 315° |
| 2026-05-04 11:25 | 52.19589 | -1.11330 | 38047 ft | 495 kts | 324° |
| 2026-05-04 11:25 | 52.25666 | -1.16589 | 38046 ft | 496 kts | 336° |
| 2026-05-04 11:27 | 52.54436 | -1.35954 | 38019 ft | 497 kts | 337° |
| 2026-05-04 11:28 | 52.60877 | -1.40018 | 38021 ft | 495 kts | 340° |
| 2026-05-04 11:28 | 52.67370 | -1.43832 | 38021 ft | 495 kts | 340° |
| 2026-05-04 11:29 | 52.73847 | -1.47680 | 38073 ft | 495 kts | 340° |
| 2026-05-04 11:29 | 52.80315 | -1.51597 | 38074 ft | 494 kts | 340° |
| 2026-05-04 11:31 | 53.02102 | -1.67534 | 38069 ft | 491 kts | 318° |
| 2026-05-04 11:33 | 53.11597 | -2.03133 | 38071 ft | 492 kts | 285° |
| 2026-05-04 11:33 | 53.13279 | -2.13454 | 38072 ft | 492 kts | 285° |
| 2026-05-04 11:34 | 53.15640 | -2.24113 | 38072 ft | 491 kts | 295° |